Terminal Aerodrome Forecast
Issued by NWS Wilmington, OH

Current Version | Previous Version | Text Only | Print | Product List | Glossary Off
Versions: 1 2 3 4 5 6 7 8 9 10 11 12 13 14 15 16 17 18 19 20 21 22

326
FTUS41 KILN 082122 AAB
TAFCMH
TAF AMD
KCMH 082122Z 0821/0918 27005KT 5SM -SN BKN025 OVC050
     FM082200 27007KT P6SM SCT025 OVC050
      TEMPO 0822/0901 3SM -SN BKN025
     FM090100 29007KT P6SM -SN BKN015 OVC025
     FM090600 30010KT P6SM -SN OVC012
     FM091200 28011G19KT 3SM -SN OVC015=

USA.gov is the U.S. government's official web portal to all federal, state and local government web resources and services.